Time;durP1;ratioP1;P1;durP2;ratioP2;P2;SDS_P1;SDS_P2;PMS_P1;PMS_P2;Temp;Humidity;BMP_temperature;BMP_pressure;BME280_temperature;BME280_humidity;BME280_pressure;Samples;Min_cycle;Max_cycle;Signal;HPM_P1;HPM_P2
2023/01/19 00:01:39;;;;;;;24.00;15.35;;;;;;;0.17;87.55;97008.06;4179931;28;20202;-87
2023/01/19 00:03:42;;;;;;;35.45;20.10;;;;;;;0.19;86.88;97006.25;4198385;28;20798;-87
2023/01/19 00:05:45;;;;;;;28.30;17.88;;;;;;;0.19;86.85;97016.50;4169363;28;20211;-87
2023/01/19 00:07:49;;;;;;;32.35;19.10;;;;;;;0.17;87.07;97016.56;4170963;28;20292;-87
2023/01/19 00:09:51;;;;;;;28.58;19.20;;;;;;;0.17;87.09;97010.63;4186542;28;20268;-87
2023/01/19 00:11:55;;;;;;;26.48;16.80;;;;;;;0.13;86.65;97019.34;4184820;28;20209;-87
2023/01/19 00:13:59;;;;;;;29.98;18.48;;;;;;;0.08;86.56;97022.13;4166058;28;20753;-88
2023/01/19 00:16:02;;;;;;;24.30;16.90;;;;;;;0.07;86.76;97023.00;4177713;28;20336;-87
2023/01/19 00:18:05;;;;;;;24.95;17.00;;;;;;;0.06;86.98;97017.94;4170732;28;20206;-87
2023/01/19 00:20:12;;;;;;;19.77;13.32;;;;;;;0.06;87.49;97018.81;4201295;28;20209;-87
2023/01/19 00:22:15;;;;;;;21.58;14.90;;;;;;;0.05;87.43;97016.31;4195011;28;20219;-87
2023/01/19 00:24:18;;;;;;;23.88;14.73;;;;;;;0.06;87.61;97018.81;4183833;28;20230;-88
2023/01/19 00:26:21;;;;;;;19.05;13.70;;;;;;;0.05;87.73;97008.63;4186782;28;20631;-87
2023/01/19 00:28:25;;;;;;;23.67;14.43;;;;;;;0.04;87.39;97018.00;4180586;28;20205;-87
2023/01/19 00:30:29;;;;;;;20.35;14.70;;;;;;;0.04;87.75;97019.75;4167698;28;20214;-87
2023/01/19 00:32:32;;;;;;;23.75;14.75;;;;;;;0.04;87.99;97020.56;4167652;28;20198;-87
2023/01/19 00:34:48;;;;;;;18.73;13.68;;;;;;;0.03;88.02;97024.06;4199156;28;20888;-87
2023/01/19 00:36:51;;;;;;;20.50;13.05;;;;;;;0.01;87.88;97020.72;4183531;28;20985;-87
2023/01/19 00:38:54;;;;;;;17.20;12.75;;;;;;;-0.01;87.90;97017.41;4170162;28;20267;-87
2023/01/19 00:40:57;;;;;;;21.55;13.27;;;;;;;-0.03;87.17;97025.22;4186068;28;20268;-87
2023/01/19 00:42:59;;;;;;;17.95;13.10;;;;;;;-0.09;87.77;97023.78;4169093;28;20206;-87
2023/01/19 00:45:02;;;;;;;18.83;13.43;;;;;;;-0.11;87.27;97030.69;4178273;28;20234;-87
2023/01/19 00:47:07;;;;;;;19.38;12.88;;;;;;;-0.14;86.89;97025.69;4180147;28;20202;-87
2023/01/19 00:49:10;;;;;;;19.30;13.65;;;;;;;-0.14;87.00;97030.00;4186465;28;20427;-87
2023/01/19 00:51:13;;;;;;;18.45;13.10;;;;;;;-0.15;87.13;97036.84;4178187;28;20548;-87
2023/01/19 00:53:17;;;;;;;19.35;12.05;;;;;;;-0.10;87.49;97040.03;4196427;28;20212;-87
2023/01/19 00:55:20;;;;;;;17.83;13.13;;;;;;;-0.05;87.50;97042.41;4180941;28;20271;-88
2023/01/19 00:57:23;;;;;;;18.27;13.15;;;;;;;-0.06;88.16;97044.13;4193923;28;20215;-87
2023/01/19 00:59:26;;;;;;;20.13;12.40;;;;;;;-0.03;87.67;97032.91;4177235;28;20186;-87
2023/01/19 01:01:29;;;;;;;17.48;13.27;;;;;;;-0.02;88.33;97037.97;4193617;28;20731;-87
2023/01/19 01:03:49;;;;;;;19.05;12.50;;;;;;;-0.02;88.27;97032.84;4182669;28;20216;-87
2023/01/19 01:05:52;;;;;;;17.67;12.50;;;;;;;-0.01;88.38;97036.25;4164023;28;20269;-87
2023/01/19 01:07:55;;;;;;;21.17;13.48;;;;;;;-0.03;87.81;97033.75;4177763;28;20216;-87
2023/01/19 01:09:58;;;;;;;20.17;12.55;;;;;;;-0.05;87.68;97032.97;4167372;28;20230;-87
2023/01/19 01:12:01;;;;;;;19.88;13.25;;;;;;;-0.04;88.13;97037.19;4162978;28;20292;-87
2023/01/19 01:14:04;;;;;;;24.83;13.57;;;;;;;-0.04;88.32;97042.31;4178006;28;20308;-87
2023/01/19 01:16:08;;;;;;;32.42;19.60;;;;;;;-0.01;88.37;97047.31;4178589;28;20201;-87
2023/01/19 01:18:11;;;;;;;22.42;14.85;;;;;;;0.02;88.59;97047.19;4178241;28;20292;-87
2023/01/19 01:20:18;;;;;;;15.57;12.10;;;;;;;0.00;87.59;97046.44;4180102;28;20565;-87
2023/01/19 01:22:21;;;;;;;16.92;11.90;;;;;;;-0.05;87.17;97040.66;4195057;28;20577;-87
2023/01/19 01:24:25;;;;;;;17.33;11.60;;;;;;;-0.11;86.73;97038.34;4175469;28;20696;-88
2023/01/19 01:26:28;;;;;;;20.60;13.10;;;;;;;-0.13;87.09;97050.41;4195665;28;20221;-87
2023/01/19 01:28:31;;;;;;;20.85;13.80;;;;;;;-0.12;86.98;97044.41;4179833;28;20205;-88
2023/01/19 01:30:38;;;;;;;26.25;16.85;;;;;;;-0.09;86.95;97043.41;4180239;28;20323;-87
2023/01/19 01:32:43;;;;;;;26.20;16.00;;;;;;;-0.10;87.15;97042.59;4163818;28;20209;-88
2023/01/19 01:34:48;;;;;;;23.75;15.73;;;;;;;-0.08;87.67;97050.22;4177384;28;20786;-87
2023/01/19 01:36:53;;;;;;;21.08;15.00;;;;;;;-0.09;88.16;97043.41;4183315;28;20338;-87
2023/01/19 01:38:56;;;;;;;18.70;14.10;;;;;;;-0.09;87.26;97044.28;4166822;28;20702;-87
2023/01/19 01:40:59;;;;;;;19.80;13.80;;;;;;;-0.05;87.35;97043.22;4168556;28;20309;-87
2023/01/19 01:43:02;;;;;;;19.50;13.65;;;;;;;-0.09;87.96;97046.84;4179725;28;20327;-87
2023/01/19 01:45:28;;;;;;;18.90;13.38;;;;;;;-0.07;87.51;97036.53;4196796;28;20225;-88
2023/01/19 01:47:34;;;;;;;21.13;15.40;;;;;;;-0.12;87.28;97049.53;4176592;28;20316;-88
2023/01/19 01:49:37;;;;;;;19.63;13.38;;;;;;;-0.16;87.32;97049.72;4163194;28;20207;-87
2023/01/19 01:51:42;;;;;;;20.55;13.45;;;;;;;-0.20;87.54;97041.31;4181305;28;20214;-87
2023/01/19 01:53:50;;;;;;;21.02;14.40;;;;;;;-0.23;87.51;97048.31;4183016;28;20264;-87
2023/01/19 01:55:53;;;;;;;21.40;13.70;;;;;;;-0.23;87.40;97050.88;4177074;28;20896;-88
2023/01/19 01:58:01;;;;;;;18.15;12.75;;;;;;;-0.24;87.84;97050.06;4177679;28;20263;-88
2023/01/19 02:00:06;;;;;;;19.58;13.27;;;;;;;-0.24;87.42;97044.94;4192097;28;20676;-87
2023/01/19 02:04:34;;;;;;;19.13;12.15;;;;;;;-0.26;87.91;97048.44;4191291;28;20201;-87
2023/01/19 02:13:44;;;;;;;17.10;11.43;;;;;;;-0.25;88.38;97047.56;4176736;28;20657;-88
2023/01/19 02:15:48;;;;;;;18.33;11.88;;;;;;;-0.23;88.40;97048.31;4197940;28;20724;-87
2023/01/19 02:17:51;;;;;;;14.82;10.75;;;;;;;-0.25;87.84;97043.25;4184694;28;20212;-88
2023/01/19 02:19:55;;;;;;;16.33;11.57;;;;;;;-0.25;87.49;97053.50;4179031;28;20224;-88
2023/01/19 02:22:03;;;;;;;19.42;12.18;;;;;;;-0.26;87.87;97054.38;4165524;28;20198;-88
2023/01/19 02:24:13;;;;;;;15.95;11.43;;;;;;;-0.30;87.81;97045.19;4198132;28;20269;-88
2023/01/19 02:26:18;;;;;;;18.45;11.13;;;;;;;-0.30;87.71;97045.19;4181509;28;20205;-87
2023/01/19 02:28:21;;;;;;;14.93;11.38;;;;;;;-0.30;87.69;97050.31;4178225;28;20293;-88
2023/01/19 02:30:25;;;;;;;15.88;11.10;;;;;;;-0.31;87.11;97048.63;4191838;28;20355;-87
2023/01/19 02:32:28;;;;;;;15.27;10.88;;;;;;;-0.33;87.01;97047.88;4165466;28;20583;-88
2023/01/19 02:34:31;;;;;;;16.65;10.63;;;;;;;-0.36;86.69;97054.84;4167415;28;20708;-88
2023/01/19 02:36:37;;;;;;;16.60;10.43;;;;;;;-0.38;86.52;97051.53;4166420;28;20326;-88
2023/01/19 02:38:41;;;;;;;17.42;11.15;;;;;;;-0.38;86.52;97052.34;4184689;28;20209;-87
2023/01/19 02:40:46;;;;;;;16.98;11.27;;;;;;;-0.39;86.33;97055.00;4198322;28;20300;-87
2023/01/19 02:42:50;;;;;;;16.77;10.82;;;;;;;-0.38;87.01;97052.34;4170443;28;20388;-88
2023/01/19 02:44:55;;;;;;;17.33;11.35;;;;;;;-0.34;87.24;97053.88;4190048;28;20229;-87
2023/01/19 02:46:58;;;;;;;19.73;12.10;;;;;;;-0.30;87.63;97055.44;4191057;28;20673;-87
2023/01/19 02:49:03;;;;;;;18.17;12.95;;;;;;;-0.22;87.45;97061.06;4173475;28;20222;-87
2023/01/19 02:51:12;;;;;;;19.17;13.00;;;;;;;-0.24;87.47;97062.84;4167901;28;20288;-87
2023/01/19 02:53:42;;;;;;;18.58;11.60;;;;;;;-0.26;87.17;97061.25;4173441;28;20213;-87
2023/01/19 02:55:50;;;;;;;19.75;12.65;;;;;;;-0.27;87.17;97055.31;4184904;28;20319;-87
2023/01/19 02:57:59;;;;;;;21.38;13.40;;;;;;;-0.28;87.17;97063.06;4165419;28;20653;-87
2023/01/19 03:00:17;;;;;;;18.55;13.30;;;;;;;-0.31;87.48;97065.75;4196131;28;20204;-87
2023/01/19 03:02:30;;;;;;;15.95;11.02;;;;;;;-0.36;87.45;97071.06;4178587;28;20276;-87
2023/01/19 03:04:44;;;;;;;17.05;12.07;;;;;;;-0.41;87.70;97057.63;4178011;28;20247;-87
2023/01/19 03:06:50;;;;;;;17.42;11.70;;;;;;;-0.42;87.86;97065.38;4180151;28;20209;-88
2023/01/19 03:08:55;;;;;;;17.48;11.98;;;;;;;-0.43;88.11;97064.53;4183573;28;20312;-87
2023/01/19 03:11:02;;;;;;;15.80;10.60;;;;;;;-0.43;87.89;97067.06;4160417;28;20234;-88
2023/01/19 03:13:11;;;;;;;17.30;11.18;;;;;;;-0.45;87.17;97061.19;4160719;28;20674;-87
2023/01/19 03:15:19;;;;;;;16.40;11.75;;;;;;;-0.48;86.73;97064.78;4178925;28;20266;-87
2023/01/19 03:17:22;;;;;;;16.98;11.93;;;;;;;-0.54;86.44;97057.34;4176540;28;20217;-87
2023/01/19 03:19:27;;;;;;;17.50;12.20;;;;;;;-0.53;87.09;97067.53;4183848;28;20301;-87
2023/01/19 03:21:31;;;;;;;15.88;11.40;;;;;;;-0.53;86.63;97061.59;4164779;28;20210;-87
2023/01/19 03:23:37;;;;;;;19.00;11.45;;;;;;;-0.53;86.52;97061.59;4182953;28;20206;-87
2023/01/19 03:25:42;;;;;;;16.98;11.25;;;;;;;-0.54;86.58;97065.03;4163087;28;20786;-87
2023/01/19 03:27:47;;;;;;;17.00;11.95;;;;;;;-0.54;86.46;97059.91;4176636;28;20646;-87
2023/01/19 03:29:52;;;;;;;15.55;10.65;;;;;;;-0.49;86.89;97060.56;4166203;28;21529;-87
2023/01/19 03:31:57;;;;;;;16.27;10.82;;;;;;;-0.49;87.06;97058.84;4165119;28;20207;-87
2023/01/19 03:34:03;;;;;;;15.82;10.88;;;;;;;-0.49;87.16;97060.56;4193015;28;20706;-87
2023/01/19 03:36:10;;;;;;;15.30;10.88;;;;;;;-0.48;86.78;97064.78;4177077;28;20218;-87
2023/01/19 03:38:16;;;;;;;16.88;11.15;;;;;;;-0.47;86.88;97070.69;4179159;28;20263;-88
2023/01/19 03:40:19;;;;;;;12.90;10.30;;;;;;;-0.49;87.15;97070.81;4166127;28;20214;-87
2023/01/19 03:42:24;;;;;;;15.20;11.00;;;;;;;-0.52;87.27;97083.75;4200623;28;20204;-87
2023/01/19 03:44:29;;;;;;;15.38;10.52;;;;;;;-0.56;86.84;97069.41;4180308;28;20227;-87
2023/01/19 03:46:33;;;;;;;15.30;10.10;;;;;;;-0.61;86.20;97067.03;4197682;28;20198;-87
2023/01/19 03:48:36;;;;;;;16.55;10.30;;;;;;;-0.64;86.36;97071.44;4185032;28;20193;-87
2023/01/19 03:50:39;;;;;;;16.80;10.52;;;;;;;-0.71;86.12;97073.41;4180711;28;20886;-87
2023/01/19 03:52:42;;;;;;;18.67;11.50;;;;;;;-0.72;85.95;97071.75;4186370;28;20210;-87
2023/01/19 03:54:47;;;;;;;19.00;11.30;;;;;;;-0.70;86.09;97069.13;4177418;28;20217;-87
2023/01/19 03:56:51;;;;;;;14.20;10.07;;;;;;;-0.71;86.10;97075.13;4163473;28;20222;-87
2023/01/19 03:58:54;;;;;;;15.73;10.20;;;;;;;-0.71;86.26;97078.50;4193712;28;20209;-87
2023/01/19 04:01:00;;;;;;;14.43;10.45;;;;;;;-0.71;86.26;97070.03;4167044;28;20210;-87
2023/01/19 04:03:03;;;;;;;14.73;10.43;;;;;;;-0.71;86.22;97075.13;4195053;28;20248;-87
2023/01/19 04:05:07;;;;;;;13.68;10.52;;;;;;;-0.67;86.39;97074.94;4166477;28;20202;-87
2023/01/19 04:07:11;;;;;;;14.77;10.65;;;;;;;-0.64;86.57;97079.94;4185285;28;20206;-87
2023/01/19 04:09:14;;;;;;;19.80;10.77;;;;;;;-0.59;86.92;97084.88;4159565;28;20589;-87
2023/01/19 04:11:17;;;;;;;19.85;12.50;;;;;;;-0.61;86.81;97073.88;4182773;28;20288;-87
2023/01/19 04:13:20;;;;;;;16.27;10.98;;;;;;;-0.62;86.75;97072.19;4163730;28;20255;-87
2023/01/19 04:15:23;;;;;;;19.48;12.38;;;;;;;-0.63;86.69;97086.75;4176308;28;20213;-87
2023/01/19 04:17:27;;;;;;;18.55;11.48;;;;;;;-0.65;86.56;97077.44;4174788;28;20214;-87
2023/01/19 04:19:30;;;;;;;15.55;10.70;;;;;;;-0.64;86.74;97087.63;4180486;28;20190;-87
2023/01/19 04:21:34;;;;;;;17.08;11.23;;;;;;;-0.61;86.69;97089.22;4177520;28;20284;-87
2023/01/19 04:23:37;;;;;;;17.30;10.40;;;;;;;-0.60;86.76;97093.44;4177186;28;20198;-87
2023/01/19 04:25:40;;;;;;;15.38;10.23;;;;;;;-0.63;86.47;97091.00;4197088;28;20250;-87
2023/01/19 04:27:43;;;;;;;13.05;10.35;;;;;;;-0.61;86.67;97095.16;4182491;28;20202;-87
2023/01/19 04:29:46;;;;;;;15.40;11.10;;;;;;;-0.61;86.62;97097.72;4175855;28;20809;-87
2023/01/19 04:31:49;;;;;;;14.05;10.55;;;;;;;-0.61;86.24;97096.91;4176578;28;20201;-88
2023/01/19 04:33:53;;;;;;;16.30;10.55;;;;;;;-0.65;85.79;97093.63;4160147;28;20252;-88
2023/01/19 04:35:56;;;;;;;13.38;10.05;;;;;;;-0.63;85.69;97091.00;4194696;28;20213;-88
2023/01/19 04:37:59;;;;;;;15.88;10.45;;;;;;;-0.56;85.67;97092.44;4177444;28;20230;-88
2023/01/19 04:40:03;;;;;;;14.18;10.38;;;;;;;-0.53;86.07;97097.41;4185771;28;20202;-88
2023/01/19 04:42:06;;;;;;;13.68;10.32;;;;;;;-0.50;86.04;97097.28;4171329;28;20566;-88
2023/01/19 04:44:09;;;;;;;13.02;10.10;;;;;;;-0.48;86.11;97103.16;4181293;28;20216;-88
2023/01/19 04:46:12;;;;;;;14.50;9.93;;;;;;;-0.44;86.50;97101.28;4181202;28;20236;-88
2023/01/19 04:48:17;;;;;;;14.25;9.77;;;;;;;-0.41;87.23;97097.72;4178485;28;20201;-87
2023/01/19 04:50:21;;;;;;;13.50;9.25;;;;;;;-0.38;87.52;97095.88;4179609;28;20633;-88
2023/01/19 04:52:24;;;;;;;12.23;9.60;;;;;;;-0.34;87.75;97105.09;4180067;28;20209;-87
2023/01/19 04:54:27;;;;;;;16.40;11.43;;;;;;;-0.29;87.46;97103.16;4181900;28;20205;-88
2023/01/19 04:56:30;;;;;;;15.00;11.00;;;;;;;-0.26;87.31;97108.16;4181504;28;20193;-88
2023/01/19 04:58:33;;;;;;;32.25;17.30;;;;;;;-0.28;86.99;97109.97;4165149;28;20803;-88
2023/01/19 05:00:37;;;;;;;28.85;19.08;;;;;;;-0.31;87.53;97110.09;4182516;28;20251;-87
2023/01/19 05:02:41;;;;;;;15.32;10.25;;;;;;;-0.33;87.21;97111.91;4181634;28;20224;-88
2023/01/19 05:04:44;;;;;;;14.27;10.40;;;;;;;-0.38;86.39;97111.22;4192988;28;20316;-87
2023/01/19 05:06:48;;;;;;;12.70;9.90;;;;;;;-0.48;85.85;97105.72;4179757;28;20292;-88
2023/01/19 05:08:52;;;;;;;15.32;9.27;;;;;;;-0.55;85.37;97106.91;4181825;28;20209;-88
2023/01/19 05:10:56;;;;;;;14.50;10.02;;;;;;;-0.60;85.48;97107.09;4165955;28;20295;-87
2023/01/19 05:12:59;;;;;;;15.57;10.00;;;;;;;-0.61;85.62;97107.16;4164638;28;20203;-87
2023/01/19 05:15:03;;;;;;;15.45;10.30;;;;;;;-0.61;86.05;97110.53;4176243;28;20213;-87
2023/01/19 05:17:06;;;;;;;15.82;10.75;;;;;;;-0.62;86.00;97108.84;4193856;28;20267;-88
2023/01/19 05:19:09;;;;;;;18.42;11.05;;;;;;;-0.63;86.08;97107.22;4162202;28;20206;-88
2023/01/19 05:21:13;;;;;;;14.95;10.60;;;;;;;-0.63;85.91;97116.59;4167718;28;20248;-87
2023/01/19 05:23:17;;;;;;;15.77;10.80;;;;;;;-0.63;86.02;97116.59;4178680;28;20205;-88
2023/01/19 05:25:20;;;;;;;13.45;9.70;;;;;;;-0.64;85.78;97114.94;4177997;28;20918;-87
2023/01/19 05:27:23;;;;;;;13.35;9.98;;;;;;;-0.67;85.65;97115.91;4195509;28;20212;-88
2023/01/19 05:29:27;;;;;;;15.90;10.45;;;;;;;-0.67;85.60;97112.50;4184187;28;20235;-87
2023/01/19 05:31:30;;;;;;;15.10;10.50;;;;;;;-0.69;86.02;97121.94;4194525;28;20656;-88
2023/01/19 05:33:33;;;;;;;16.20;10.32;;;;;;;-0.68;86.26;97121.06;4168695;28;20308;-87
2023/01/19 05:35:36;;;;;;;17.30;10.90;;;;;;;-0.73;86.47;97116.13;4195666;28;20284;-87
2023/01/19 05:37:39;;;;;;;15.85;11.23;;;;;;;-0.73;86.44;97120.44;4194073;28;20229;-87
2023/01/19 05:39:44;;;;;;;18.60;11.13;;;;;;;-0.73;87.00;97120.44;4164780;28;20321;-87
2023/01/19 05:41:47;;;;;;;16.08;10.23;;;;;;;-0.68;87.67;97124.44;4166055;28;20648;-88
2023/01/19 05:43:50;;;;;;;17.67;11.10;;;;;;;-0.63;87.75;97129.38;4179372;28;20296;-88
2023/01/19 05:45:53;;;;;;;14.82;11.68;;;;;;;-0.66;87.29;97126.94;4192306;28;20225;-87
2023/01/19 05:47:56;;;;;;;16.27;10.02;;;;;;;-0.74;86.35;97127.25;4165351;28;20202;-87
2023/01/19 05:49:59;;;;;;;14.88;9.60;;;;;;;-0.78;85.73;97127.47;4181758;28;20301;-87
2023/01/19 05:52:02;;;;;;;18.73;11.80;;;;;;;-0.80;85.80;97140.31;4180619;28;20263;-87
2023/01/19 05:54:06;;;;;;;17.13;10.52;;;;;;;-0.76;85.78;97133.34;4197281;28;20209;-88
2023/01/19 05:56:10;;;;;;;16.52;10.55;;;;;;;-0.72;86.31;97138.28;4179401;28;20201;-88
2023/01/19 05:58:13;;;;;;;14.57;10.15;;;;;;;-0.65;86.68;97139.69;4167806;28;20249;-87
2023/01/19 06:00:17;;;;;;;16.23;9.73;;;;;;;-0.62;88.00;97138.75;4179232;28;20213;-87
2023/01/19 06:02:22;;;;;;;17.85;10.50;;;;;;;-0.58;88.07;97146.22;4178855;28;20299;-87
2023/01/19 06:04:25;;;;;;;16.52;10.40;;;;;;;-0.51;88.64;97154.50;4183032;28;20285;-87
2023/01/19 06:06:28;;;;;;;17.13;10.65;;;;;;;-0.44;88.65;97155.03;4197280;28;20291;-87
2023/01/19 06:08:31;;;;;;;19.77;9.90;;;;;;;-0.41;88.22;97151.50;4185950;28;20317;-88
2023/01/19 06:10:34;;;;;;;17.50;10.30;;;;;;;-0.41;88.10;97149.78;4179874;28;20201;-87
2023/01/19 06:12:40;;;;;;;11.88;9.00;;;;;;;-0.39;87.74;97149.72;4174706;28;20242;-87
2023/01/19 06:14:43;;;;;;;16.58;10.43;;;;;;;-0.38;87.96;97154.75;4166012;28;20199;-88
2023/01/19 06:16:46;;;;;;;15.77;10.25;;;;;;;-0.33;88.37;97157.13;4166767;28;20236;-88
2023/01/19 06:18:49;;;;;;;12.98;9.50;;;;;;;-0.32;87.99;97164.75;4171295;28;20230;-88
2023/01/19 06:20:57;;;;;;;18.48;13.18;;;;;;;-0.36;86.93;97158.09;4166841;28;20753;-87
2023/01/19 06:23:00;;;;;;;18.67;12.18;;;;;;;-0.44;86.82;97160.16;4198488;28;20207;-87
2023/01/19 06:25:04;;;;;;;20.27;13.20;;;;;;;-0.44;86.89;97159.31;4194697;28;20259;-87
2023/01/19 06:27:07;;;;;;;18.60;10.80;;;;;;;-0.45;86.09;97163.59;4196301;28;20201;-87
2023/01/19 06:29:13;;;;;;;17.27;11.95;;;;;;;-0.44;86.15;97165.28;4182921;28;20308;-87
2023/01/19 06:31:16;;;;;;;19.15;13.48;;;;;;;-0.44;85.82;97165.28;4177365;28;20291;-88
2023/01/19 06:33:19;;;;;;;22.00;14.48;;;;;;;-0.47;85.67;97167.09;4179978;28;20247;-89
2023/01/19 06:35:22;;;;;;;32.78;18.98;;;;;;;-0.56;85.89;97170.03;4182834;28;20223;-88
2023/01/19 06:37:27;;;;;;;31.25;20.98;;;;;;;-0.59;86.31;97171.88;4165586;28;20207;-88
2023/01/19 06:39:30;;;;;;;22.85;14.68;;;;;;;-0.62;86.60;97170.28;4198159;28;20649;-88
2023/01/19 06:41:33;;;;;;;18.92;13.40;;;;;;;-0.63;86.80;97173.75;4167737;28;20725;-88
2023/01/19 06:43:36;;;;;;;18.85;12.35;;;;;;;-0.64;86.55;97172.06;4172497;28;20249;-88
2023/01/19 06:45:41;;;;;;;18.17;12.98;;;;;;;-0.70;85.38;97172.31;4191574;28;20218;-88
2023/01/19 06:47:47;;;;;;;19.95;12.50;;;;;;;-0.73;85.56;97179.28;4192868;28;20216;-88
2023/01/19 06:49:50;;;;;;;15.80;11.60;;;;;;;-0.74;85.71;97180.16;4181405;28;20210;-84
2023/01/19 06:51:53;;;;;;;18.80;11.85;;;;;;;-0.73;86.06;97182.66;4196690;28;20260;-87
2023/01/19 06:53:56;;;;;;;17.40;11.90;;;;;;;-0.69;86.02;97184.22;4164003;28;20195;-87
2023/01/19 06:56:00;;;;;;;18.13;11.27;;;;;;;-0.65;86.05;97190.03;4180161;28;20206;-87
2023/01/19 06:58:04;;;;;;;20.23;11.50;;;;;;;-0.64;86.19;97189.16;4181754;28;20229;-87
2023/01/19 07:00:08;;;;;;;19.00;12.25;;;;;;;-0.63;86.09;97188.25;4181282;28;20206;-87
2023/01/19 07:02:17;;;;;;;22.15;12.70;;;;;;;-0.58;86.83;97188.91;4196160;28;20216;-87
2023/01/19 07:04:30;;;;;;;18.55;11.32;;;;;;;-0.54;87.08;97193.00;4171708;28;20277;-87
2023/01/19 07:06:33;;;;;;;17.63;12.00;;;;;;;-0.52;86.93;97194.63;4179375;28;20600;-87
2023/01/19 07:08:37;;;;;;;14.07;10.38;;;;;;;-0.46;86.79;97199.50;4162904;28;20333;-87
2023/01/19 07:10:40;;;;;;;20.08;11.90;;;;;;;-0.48;87.11;97192.75;4182123;28;20206;-86
2023/01/19 07:13:03;;;;;;;16.40;11.52;;;;;;;-0.50;87.29;97197.94;4198800;28;20233;-87
2023/01/19 07:15:08;;;;;;;16.42;11.45;;;;;;;-0.47;87.50;97197.00;4195703;28;20739;-88
2023/01/19 07:17:13;;;;;;;18.92;12.43;;;;;;;-0.47;87.52;97199.56;4177907;28;20704;-87
2023/01/19 07:19:16;;;;;;;22.90;12.90;;;;;;;-0.49;86.97;97197.06;4168633;28;20313;-87
2023/01/19 07:21:19;;;;;;;18.77;12.02;;;;;;;-0.54;86.32;97193.00;4194134;28;20193;-88
2023/01/19 07:23:22;;;;;;;18.25;12.32;;;;;;;-0.54;87.04;97203.25;4167833;28;20195;-89
2023/01/19 07:25:26;;;;;;;18.58;13.18;;;;;;;-0.54;87.10;97203.25;4166083;28;20752;-89
2023/01/19 07:27:29;;;;;;;22.42;13.75;;;;;;;-0.49;87.31;97204.75;4179257;28;20247;-90
2023/01/19 07:29:32;;;;;;;17.35;10.73;;;;;;;-0.47;88.00;97196.13;4182752;28;20201;-89
2023/01/19 07:31:36;;;;;;;21.35;12.63;;;;;;;-0.43;87.95;97189.97;4168816;28;20617;-90
2023/01/19 07:33:40;;;;;;;15.65;11.63;;;;;;;-0.42;87.50;97194.19;4181894;28;20219;-89
2023/01/19 07:35:46;;;;;;;17.80;12.07;;;;;;;-0.48;87.51;97192.75;4195174;28;20209;-89
2023/01/19 07:37:49;;;;;;;16.45;11.55;;;;;;;-0.53;86.94;97195.50;4170568;28;20786;-89
2023/01/19 07:39:52;;;;;;;16.67;11.40;;;;;;;-0.55;86.63;97197.31;4179677;28;20272;-89
2023/01/19 07:41:56;;;;;;;18.48;10.77;;;;;;;-0.53;87.32;97192.13;4165185;28;20206;-89
2023/01/19 07:43:59;;;;;;;14.25;10.80;;;;;;;-0.47;88.34;97193.56;4181806;28;20602;-90
2023/01/19 07:46:04;;;;;;;16.35;10.68;;;;;;;-0.41;88.61;97210.38;4169083;28;20253;-89
2023/01/19 07:48:07;;;;;;;16.65;11.43;;;;;;;-0.36;88.39;97204.19;4168816;28;20203;-89
2023/01/19 07:50:12;;;;;;;17.98;11.90;;;;;;;-0.18;89.31;97200.88;4167394;28;20207;-89
2023/01/19 07:52:15;;;;;;;15.75;11.25;;;;;;;-0.02;88.25;97204.47;4180366;28;20232;-89
2023/01/19 07:54:19;;;;;;;16.10;11.40;;;;;;;-0.02;87.20;97201.09;4195018;28;20270;-89
2023/01/19 07:56:23;;;;;;;14.30;10.80;;;;;;;-0.09;86.15;97197.94;4183807;28;20653;-89
2023/01/19 07:58:26;;;;;;;14.75;10.52;;;;;;;-0.12;86.23;97210.88;4178575;28;20217;-88
2023/01/19 08:00:30;;;;;;;15.35;11.27;;;;;;;0.03;86.97;97207.66;4163065;28;20212;-87
2023/01/19 08:02:34;;;;;;;17.05;11.73;;;;;;;0.27;86.93;97214.31;4178579;28;20194;-88
2023/01/19 08:04:37;;;;;;;15.13;11.75;;;;;;;0.48;86.32;97221.94;4170641;28;20292;-87
2023/01/19 08:06:52;;;;;;;16.27;11.52;;;;;;;0.66;85.88;97229.69;4195358;28;20216;-88
2023/01/19 08:09:45;;;;;;;20.45;11.70;;;;;;;0.82;85.92;97233.22;4198776;28;20208;-87
2023/01/19 08:12:58;;;;;;;17.25;11.18;;;;;;;0.91;85.46;97242.25;4150578;28;20197;-88
2023/01/19 08:15:24;;;;;;;16.05;12.05;;;;;;;1.15;85.61;97247.13;4169389;28;20210;-87
2023/01/19 08:18:00;;;;;;;16.95;11.73;;;;;;;1.38;86.08;97252.84;4187515;28;20212;-86
2023/01/19 08:20:51;;;;;;;17.52;11.15;;;;;;;1.71;84.80;97262.38;4172816;28;20715;-86
2023/01/19 08:23:16;;;;;;;15.52;11.13;;;;;;;2.02;84.48;97262.59;4176255;28;20194;-86
2023/01/19 08:26:02;;;;;;;17.80;12.50;;;;;;;2.29;84.61;97269.81;4154464;28;20628;-87
2023/01/19 08:28:14;;;;;;;20.38;13.45;;;;;;;2.48;84.05;97276.53;4181546;28;20276;-86
2023/01/19 08:30:20;;;;;;;19.17;12.57;;;;;;;2.62;83.02;97271.53;4195261;28;20239;-87
2023/01/19 08:32:39;;;;;;;17.58;12.40;;;;;;;2.53;83.53;97269.41;4164167;28;20206;-85
2023/01/19 08:34:56;;;;;;;18.10;12.95;;;;;;;2.25;83.80;97263.13;4174546;28;20206;-84
2023/01/19 08:37:40;;;;;;;17.70;12.68;;;;;;;2.06;83.78;97267.53;4172728;28;20668;-84
2023/01/19 08:40:25;;;;;;;19.90;11.90;;;;;;;1.96;84.44;97274.00;4163168;28;20298;-83
2023/01/19 08:42:42;;;;;;;14.30;10.10;;;;;;;1.91;84.40;97270.84;4134676;28;20251;-84
2023/01/19 08:45:04;;;;;;;17.63;12.32;;;;;;;1.87;83.74;97271.88;4116589;28;20263;-84
2023/01/19 08:47:50;;;;;;;15.13;10.63;;;;;;;1.81;84.57;97278.22;4131541;28;20231;-84
2023/01/19 08:50:06;;;;;;;15.55;12.45;;;;;;;1.81;84.42;97276.47;4131359;28;20335;-84
2023/01/19 08:52:50;;;;;;;14.68;10.95;;;;;;;1.89;84.77;97280.34;4120454;28;20315;-84
2023/01/19 08:55:31;;;;;;;14.25;10.90;;;;;;;1.97;84.68;97282.53;4131855;28;20199;-84
2023/01/19 08:57:37;;;;;;;18.52;12.27;;;;;;;1.97;84.02;97283.38;4127533;28;20208;-84
2023/01/19 09:00:11;;;;;;;20.83;15.40;;;;;;;1.94;84.05;97278.41;4121924;28;20227;-84
2023/01/19 09:03:34;;;;;;;17.92;12.45;;;;;;;1.90;82.49;97281.19;4131687;28;21726;-84
2023/01/19 09:06:02;;;;;;;18.85;13.25;;;;;;;1.91;83.90;97280.28;4132511;28;20211;-84
2023/01/19 09:08:23;;;;;;;20.65;13.30;;;;;;;1.91;84.65;97280.28;4121621;28;20574;-84
2023/01/19 09:11:35;;;;;;;19.33;14.48;;;;;;;1.87;84.84;97282.16;4122999;28;20200;-85
2023/01/19 09:14:27;;;;;;;16.20;11.43;;;;;;;1.88;83.09;97276.13;4137894;28;20207;-84
2023/01/19 09:17:00;;;;;;;15.57;12.30;;;;;;;1.96;83.81;97275.75;4121891;28;20198;-84
2023/01/19 09:19:53;;;;;;;14.85;10.35;;;;;;;2.07;83.33;97278.63;4183041;28;20201;-84
2023/01/19 09:21:58;;;;;;;16.48;10.80;;;;;;;2.10;82.68;97273.34;4188764;28;20216;-84
2023/01/19 09:24:23;;;;;;;18.10;11.00;;;;;;;2.14;83.67;97269.72;4197127;28;20254;-84
2023/01/19 09:26:54;;;;;;;14.00;11.00;;;;;;;2.17;84.03;97279.88;4171239;28;20217;-84
2023/01/19 09:29:03;;;;;;;13.00;10.07;;;;;;;2.18;84.06;97277.22;4186333;28;20221;-84
2023/01/19 09:31:17;;;;;;;12.70;10.00;;;;;;;2.15;83.17;97276.50;4200865;28;20211;-84
2023/01/19 09:33:37;;;;;;;14.05;9.10;;;;;;;2.18;84.10;97287.50;4169806;28;20573;-84
2023/01/19 09:36:12;;;;;;;17.08;10.02;;;;;;;2.30;83.56;97283.47;4156054;28;20218;-84
2023/01/19 09:38:33;;;;;;;13.73;9.27;;;;;;;2.57;83.25;97294.09;4159720;28;20360;-84
2023/01/19 09:40:45;;;;;;;15.02;10.07;;;;;;;2.77;82.22;97293.06;4175398;28;20218;-84
2023/01/19 09:43:16;;;;;;;12.38;9.95;;;;;;;2.81;81.90;97290.25;4158578;28;20217;-84
2023/01/19 09:45:59;;;;;;;12.90;9.30;;;;;;;2.79;81.27;97289.50;4136284;28;20231;-84
2023/01/19 09:49:33;;;;;;;13.30;10.25;;;;;;;2.81;81.36;97292.81;4142242;28;20215;-84
2023/01/19 09:52:03;;;;;;;14.23;9.07;;;;;;;2.80;80.93;97288.59;4146905;28;20782;-83
2023/01/19 09:54:36;;;;;;;12.65;9.73;;;;;;;2.85;81.79;97294.34;4160289;28;20912;-84
2023/01/19 09:57:02;;;;;;;14.10;9.85;;;;;;;2.85;80.68;97290.03;4158377;28;20226;-84
2023/01/19 09:59:58;;;;;;;13.23;10.50;;;;;;;2.86;82.24;97283.97;4148691;28;20207;-84
2023/01/19 10:06:02;;;;;;;14.27;10.52;;;;;;;2.91;80.85;97288.88;4150624;28;20202;-85
2023/01/19 10:08:43;;;;;;;13.10;10.05;;;;;;;2.89;80.35;97290.72;4194037;28;20204;-84
2023/01/19 10:11:57;;;;;;;15.23;10.20;;;;;;;2.88;80.10;97291.63;4178997;28;21069;-84